createdAt,value
2019-03-04T00:01:37.071Z,4.20
2019-03-04T00:04:08.098Z,4.40
2019-03-04T00:06:39.088Z,4.23
2019-03-04T00:09:10.231Z,4.93
2019-03-04T00:11:41.337Z,3.13
2019-03-04T00:14:12.367Z,3.40
2019-03-04T00:16:43.274Z,4.23
2019-03-04T00:19:16.514Z,3.47
2019-03-04T00:21:47.445Z,3.50
2019-03-04T00:24:17.291Z,5.17
2019-03-04T00:26:49.903Z,4.83
2019-03-04T00:29:20.928Z,4.00
2019-03-04T00:31:50.775Z,3.77
2019-03-04T00:34:23.753Z,3.80
2019-03-04T00:36:53.740Z,3.20
2019-03-04T00:39:23.583Z,3.07
2019-03-04T00:41:53.439Z,2.33
2019-03-04T00:44:26.528Z,2.83
2019-03-04T00:46:57.583Z,3.63
2019-03-04T00:49:29.219Z,3.77
2019-03-04T00:52:00.152Z,2.93
2019-03-04T00:54:30.945Z,4.20
2019-03-04T00:57:03.261Z,3.30
2019-03-04T00:59:35.590Z,2.90
2019-03-04T01:02:09.925Z,2.50
2019-03-04T01:04:39.775Z,3.00
2019-03-04T01:07:10.804Z,2.40
2019-03-04T01:09:40.734Z,4.50
2019-03-04T01:12:11.776Z,3.37
2019-03-04T01:14:42.689Z,3.40
2019-03-04T01:17:13.567Z,2.80
2019-03-04T01:19:43.315Z,2.30
2019-03-04T01:22:14.378Z,3.50
2019-03-04T01:24:44.294Z,2.60
2019-03-04T01:27:15.429Z,2.55
2019-03-04T01:29:47.700Z,2.73
2019-03-04T01:32:21.190Z,4.40
2019-03-04T01:34:51.958Z,2.83
2019-03-04T01:37:22.906Z,2.67
2019-03-04T01:39:52.955Z,3.10
2019-03-04T01:42:24.000Z,2.97
2019-03-04T01:44:55.109Z,2.60
2019-03-04T01:47:24.972Z,2.70
2019-03-04T01:49:54.807Z,2.50
2019-03-04T01:52:25.976Z,2.57
2019-03-04T01:54:56.719Z,3.90
2019-03-04T01:57:30.999Z,3.63
2019-03-04T02:00:00.739Z,3.13
2019-03-04T02:02:32.999Z,2.87
2019-03-04T02:05:03.271Z,3.80
2019-03-04T02:07:33.307Z,3.57
2019-03-04T02:10:03.307Z,2.90
2019-03-04T02:12:34.131Z,3.53
2019-03-04T02:15:05.039Z,3.17
2019-03-04T02:17:37.293Z,3.00
2019-03-04T02:20:12.422Z,3.07
2019-03-04T02:22:43.493Z,2.80
2019-03-04T02:25:16.645Z,4.87
2019-03-04T02:27:50.558Z,5.13
2019-03-04T02:30:28.313Z,3.87
2019-03-04T02:32:59.465Z,3.52
2019-03-04T02:35:32.009Z,2.83
2019-03-04T02:38:02.992Z,2.63
2019-03-04T02:40:35.100Z,2.70
2019-03-04T02:43:05.943Z,2.80
2019-03-04T02:45:39.544Z,3.20
2019-03-04T02:48:10.363Z,3.40
2019-03-04T02:50:41.332Z,3.07
2019-03-04T02:53:10.605Z,2.97
2019-03-04T02:55:43.087Z,2.50
2019-03-04T02:58:13.852Z,3.42
2019-03-04T03:00:43.854Z,2.33
2019-03-04T03:03:18.194Z,2.63
2019-03-04T03:05:49.050Z,2.50
2019-03-04T03:08:18.949Z,2.87
2019-03-04T03:10:51.862Z,3.07
2019-03-04T03:13:22.714Z,3.10
2019-03-04T03:15:53.555Z,3.03
2019-03-04T03:18:25.113Z,2.70
2019-03-04T03:20:55.982Z,2.80
2019-03-04T03:23:27.011Z,2.50
2019-03-04T03:25:59.336Z,2.60
2019-03-04T03:28:30.304Z,2.70
2019-03-04T03:31:00.213Z,2.10
2019-03-04T03:33:31.070Z,2.53
2019-03-04T03:36:02.017Z,2.43
2019-03-04T03:38:32.905Z,2.50
2019-03-04T03:41:05.241Z,2.27
2019-03-04T03:43:38.333Z,2.30
2019-03-04T03:46:08.373Z,2.43
2019-03-04T03:48:38.264Z,2.43
2019-03-04T03:51:10.323Z,2.40
2019-03-04T03:53:43.286Z,2.30
2019-03-04T03:56:16.139Z,2.40
2019-03-04T03:58:45.912Z,2.37
2019-03-04T04:01:19.117Z,2.30
2019-03-04T04:03:52.439Z,2.63
2019-03-04T04:06:23.508Z,2.90
2019-03-04T04:08:52.742Z,3.53
2019-03-04T04:11:23.610Z,2.60
2019-03-04T04:13:54.600Z,2.90
2019-03-04T04:16:25.660Z,2.92
2019-03-04T04:18:56.560Z,2.97
2019-03-04T04:21:28.872Z,2.50
2019-03-04T04:23:58.703Z,2.77
2019-03-04T04:26:30.909Z,3.17
2019-03-04T04:29:03.518Z,7.03
2019-03-04T04:31:34.424Z,4.73
2019-03-04T04:34:04.303Z,7.27
2019-03-04T04:36:36.325Z,6.13
2019-03-04T04:39:08.913Z,5.60
2019-03-04T04:41:39.714Z,5.00
2019-03-04T04:44:09.611Z,5.50
2019-03-04T04:46:51.516Z,3.07
2019-03-04T04:49:22.474Z,3.77
2019-03-04T04:51:55.561Z,3.10
2019-03-04T04:54:29.930Z,3.30
2019-03-04T04:57:01.187Z,3.37
2019-03-04T04:59:31.230Z,3.30
2019-03-04T05:02:02.111Z,3.40
2019-03-04T05:04:33.190Z,2.80
2019-03-04T05:07:05.583Z,3.63
2019-03-04T05:09:36.524Z,3.60
2019-03-04T05:12:11.260Z,2.53
2019-03-04T05:14:42.635Z,2.47
2019-03-04T05:17:13.672Z,2.77
2019-03-04T05:19:44.245Z,2.73
2019-03-04T05:22:16.341Z,3.13
2019-03-04T05:24:47.198Z,3.10
2019-03-04T05:27:18.102Z,3.23
2019-03-04T05:29:47.363Z,3.40
2019-03-04T05:32:18.245Z,3.70
2019-03-04T05:34:50.436Z,3.40
2019-03-04T05:37:21.267Z,2.70
2019-03-04T05:39:52.465Z,2.60
2019-03-04T05:42:24.691Z,3.15
2019-03-04T05:44:55.615Z,6.57
2019-03-04T05:47:29.434Z,3.97
2019-03-04T05:50:00.303Z,3.13
2019-03-04T05:52:31.367Z,4.10
2019-03-04T05:55:02.140Z,3.63
2019-03-04T05:57:33.000Z,3.83
2019-03-04T06:00:02.848Z,4.23
2019-03-04T06:02:35.028Z,3.93
2019-03-04T06:05:13.924Z,4.10
2019-03-04T06:07:44.807Z,4.80
2019-03-04T06:10:16.165Z,5.53
2019-03-04T06:12:47.132Z,6.57
2019-03-04T06:15:18.994Z,6.60
2019-03-04T06:17:51.493Z,5.97
2019-03-04T06:20:21.968Z,5.03
2019-03-04T06:22:53.081Z,4.90
2019-03-04T06:25:30.155Z,6.20
2019-03-04T06:28:02.576Z,7.03
2019-03-04T06:30:34.100Z,5.73
2019-03-04T06:33:04.037Z,5.97
2019-03-04T06:35:34.035Z,6.80
2019-03-04T06:38:04.876Z,4.07
2019-03-04T06:40:35.933Z,5.20
2019-03-04T06:43:07.447Z,8.83
2019-03-04T06:45:38.264Z,8.30
2019-03-04T06:48:10.488Z,13.37
2019-03-04T06:50:54.706Z,11.23
2019-03-04T06:53:51.601Z,13.37
2019-03-04T06:56:30.099Z,8.50
2019-03-04T06:59:19.030Z,8.70
2019-03-04T07:02:11.836Z,9.00
2019-03-04T07:04:51.635Z,5.90
2019-03-04T07:07:24.628Z,5.12
2019-03-04T07:09:55.567Z,4.87
2019-03-04T07:12:26.038Z,4.47
2019-03-04T07:14:55.867Z,4.83
2019-03-04T07:17:29.213Z,5.47
2019-03-04T07:20:17.760Z,3.67
2019-03-04T07:22:48.723Z,4.03
2019-03-04T07:25:19.514Z,3.80
2019-03-04T07:27:52.560Z,4.47
2019-03-04T07:30:23.785Z,3.70
2019-03-04T07:32:54.693Z,4.00
2019-03-04T07:35:28.782Z,4.03
2019-03-04T07:38:18.505Z,5.50
2019-03-04T07:40:51.578Z,5.50
2019-03-04T07:43:21.316Z,6.13
2019-03-04T07:45:53.597Z,6.37
2019-03-04T07:48:24.396Z,5.90
2019-03-04T07:50:55.355Z,4.73
2019-03-04T07:53:26.447Z,5.50
2019-03-04T07:55:56.369Z,4.10
2019-03-04T07:58:26.402Z,3.58
2019-03-04T08:00:57.295Z,3.22
2019-03-04T08:03:30.395Z,4.33
2019-03-04T08:06:01.135Z,3.70
2019-03-04T08:08:31.940Z,4.50
2019-03-04T08:11:34.230Z,7.20
2019-03-04T08:14:08.810Z,6.80
2019-03-04T08:16:39.817Z,8.20
2019-03-04T08:19:09.573Z,7.83
2019-03-04T08:21:42.591Z,9.60
2019-03-04T08:24:14.773Z,4.93
2019-03-04T08:26:47.140Z,5.40
2019-03-04T08:29:19.607Z,5.78
2019-03-04T08:31:50.626Z,5.37
2019-03-04T08:34:30.523Z,6.40
2019-03-04T08:36:53.426Z,5.90
2019-03-04T08:39:26.773Z,7.20
2019-03-04T08:41:56.583Z,6.87
2019-03-04T08:44:26.536Z,6.53
2019-03-04T08:47:00.682Z,4.73
2019-03-04T08:49:29.955Z,4.90
2019-03-04T08:52:01.074Z,5.53
2019-03-04T08:54:31.115Z,26.17
2019-03-04T08:57:04.205Z,23.90
2019-03-04T08:59:34.785Z,15.77
2019-03-04T09:02:09.511Z,6.83
2019-03-04T09:04:40.914Z,5.90
2019-03-04T09:07:11.781Z,4.97
2019-03-04T09:09:42.819Z,18.97
2019-03-04T09:12:15.782Z,5.80
2019-03-04T09:14:47.038Z,9.17
2019-03-04T09:17:18.187Z,11.13
2019-03-04T09:19:49.139Z,9.97
2019-03-04T09:22:20.020Z,13.03
2019-03-04T09:24:50.784Z,7.10
2019-03-04T09:27:21.565Z,3.47
2019-03-04T09:29:52.814Z,6.20
2019-03-04T09:32:23.899Z,3.45
2019-03-04T09:34:54.702Z,4.00
2019-03-04T09:37:26.959Z,5.70
2019-03-04T09:39:59.915Z,4.73
2019-03-04T09:42:30.251Z,5.57
2019-03-04T09:45:03.560Z,6.20
2019-03-04T09:47:36.592Z,4.00
2019-03-04T09:50:14.303Z,3.77
2019-03-04T09:52:47.611Z,5.13
2019-03-04T09:55:22.695Z,4.15
2019-03-04T09:57:55.731Z,4.10
2019-03-04T10:00:37.394Z,11.77
2019-03-04T10:03:17.559Z,3.10
2019-03-04T10:06:08.023Z,2.77
2019-03-04T10:08:46.466Z,2.67
2019-03-04T10:11:40.443Z,3.60
2019-03-04T10:14:19.132Z,3.20
2019-03-04T10:16:58.372Z,2.70
2019-03-04T10:19:50.336Z,2.10
2019-03-04T10:22:31.925Z,2.33
2019-03-04T10:25:37.742Z,2.33
2019-03-04T10:28:47.833Z,2.47
2019-03-04T10:31:38.707Z,2.02
2019-03-04T10:34:32.054Z,2.57
2019-03-04T10:37:10.420Z,1.83
2019-03-04T10:39:50.210Z,1.97
2019-03-04T10:42:39.455Z,1.70
2019-03-04T10:45:23.596Z,1.63
2019-03-04T10:47:54.476Z,2.13
2019-03-04T10:50:23.714Z,1.25
2019-03-04T10:52:53.531Z,1.43
2019-03-04T10:55:25.028Z,2.00
2019-03-04T10:57:55.483Z,2.37
2019-03-04T11:00:26.711Z,1.60
2019-03-04T11:02:57.722Z,1.60
2019-03-04T11:05:28.688Z,2.10
2019-03-04T11:08:02.022Z,1.40
2019-03-04T11:10:34.572Z,1.97
2019-03-04T11:13:05.553Z,2.43
2019-03-04T11:15:36.507Z,2.20
2019-03-04T11:18:06.586Z,2.00
2019-03-04T11:20:36.341Z,3.73
2019-03-04T11:23:07.863Z,3.55
2019-03-04T11:25:40.125Z,2.77
2019-03-04T11:28:11.064Z,3.97
2019-03-04T11:30:42.046Z,8.30
2019-03-04T11:33:11.774Z,8.00
2019-03-04T11:35:42.647Z,4.70
2019-03-04T11:38:33.412Z,5.70
2019-03-04T11:41:04.338Z,3.17
2019-03-04T11:43:35.621Z,4.23
2019-03-04T11:46:07.231Z,11.03
2019-03-04T11:48:38.186Z,8.03
2019-03-04T11:51:07.955Z,8.33
2019-03-04T11:53:39.259Z,4.60
2019-03-04T11:56:10.955Z,1.77
2019-03-04T11:58:44.143Z,5.53
2019-03-04T12:01:16.735Z,7.73
2019-03-04T12:03:46.018Z,3.23
2019-03-04T12:06:17.103Z,3.50
2019-03-04T12:08:46.911Z,4.00
2019-03-04T12:11:18.082Z,4.05
2019-03-04T12:13:49.084Z,2.80
2019-03-04T12:16:21.757Z,2.63
2019-03-04T12:18:51.699Z,3.30
2019-03-04T12:21:22.555Z,2.73
2019-03-04T12:23:53.494Z,2.90
2019-03-04T12:26:24.760Z,3.00
2019-03-04T12:28:55.815Z,2.80
2019-03-04T12:31:28.469Z,3.50
2019-03-04T12:34:02.583Z,3.00
2019-03-04T12:36:33.891Z,2.87
2019-03-04T12:39:03.867Z,4.63
2019-03-04T12:41:35.450Z,4.17
2019-03-04T12:44:05.487Z,2.60
2019-03-04T12:46:36.564Z,3.37
2019-03-04T12:49:06.611Z,2.20
2019-03-04T12:51:40.795Z,3.07
2019-03-04T12:54:10.751Z,3.17
2019-03-04T12:59:12.238Z,4.40
2019-03-04T13:01:43.742Z,4.07
2019-03-04T13:04:13.580Z,13.63
2019-03-04T13:06:43.459Z,3.33
2019-03-04T13:09:17.594Z,14.53
2019-03-04T13:11:48.527Z,12.53
2019-03-04T13:14:21.076Z,7.30
2019-03-04T13:16:51.016Z,8.93
2019-03-04T13:19:21.938Z,6.53
2019-03-04T13:21:53.078Z,5.97
2019-03-04T13:24:24.400Z,4.70
2019-03-04T13:26:54.318Z,5.90
2019-03-04T13:29:25.207Z,4.50
2019-03-04T13:31:56.243Z,5.30
2019-03-04T13:34:28.598Z,6.00
2019-03-04T13:36:57.894Z,5.00
2019-03-04T13:39:27.796Z,5.00
2019-03-04T13:42:00.223Z,5.80
2019-03-04T13:44:32.759Z,4.90
2019-03-04T13:47:02.615Z,7.40
2019-03-04T13:49:35.174Z,7.43
2019-03-04T13:52:06.224Z,70.53
2019-03-04T13:54:37.309Z,73.27
2019-03-04T13:57:08.209Z,42.97
2019-03-04T13:59:40.817Z,28.33
2019-03-04T14:02:11.933Z,29.57
2019-03-04T14:04:41.736Z,11.57
2019-03-04T14:07:11.458Z,4.20
2019-03-04T14:09:42.863Z,12.07
2019-03-04T14:12:13.898Z,11.40
2019-03-04T14:14:44.996Z,4.83
2019-03-04T14:17:16.415Z,14.78
2019-03-04T14:19:49.150Z,13.37
2019-03-04T14:22:20.115Z,36.40
2019-03-04T14:24:51.414Z,39.47
2019-03-04T14:27:22.705Z,86.60
2019-03-04T14:29:53.497Z,119.37
2019-03-04T14:32:24.385Z,98.07
2019-03-04T14:34:54.276Z,48.33
2019-03-04T14:37:25.206Z,75.92
2019-03-04T14:39:55.330Z,57.07
2019-03-04T14:42:26.535Z,71.40
2019-03-04T14:44:57.391Z,25.77
2019-03-04T14:47:29.233Z,45.00
2019-03-04T14:50:09.638Z,35.53
2019-03-04T14:52:33.228Z,31.17
2019-03-04T14:55:08.926Z,7.03
2019-03-04T14:57:39.859Z,50.40
2019-03-04T15:00:29.483Z,76.97
2019-03-04T15:03:02.323Z,70.67
2019-03-04T15:05:33.330Z,16.90
2019-03-04T15:08:04.275Z,22.70
2019-03-04T15:10:34.701Z,26.57
2019-03-04T15:13:05.613Z,18.50
2019-03-04T15:15:37.286Z,20.27
2019-03-04T15:18:08.169Z,3.40
2019-03-04T15:20:38.516Z,2.47
2019-03-04T15:23:08.544Z,2.50
2019-03-04T15:25:48.828Z,2.37
2019-03-04T15:28:20.549Z,4.30
2019-03-04T15:31:07.021Z,2.63
2019-03-04T15:33:37.920Z,2.43
2019-03-04T15:36:08.891Z,2.10
2019-03-04T15:38:38.878Z,1.80
2019-03-04T15:41:08.600Z,1.60
2019-03-04T15:43:40.796Z,1.90
2019-03-04T15:46:12.391Z,1.50
2019-03-04T15:48:48.087Z,1.30
2019-03-04T15:51:18.963Z,1.40
2019-03-04T15:53:50.559Z,1.17
2019-03-04T15:56:28.621Z,1.23
2019-03-04T15:58:59.836Z,1.10
2019-03-04T16:01:32.567Z,1.30
2019-03-04T16:04:05.032Z,1.03
2019-03-04T16:06:37.411Z,1.27
2019-03-04T16:09:17.845Z,4.37
2019-03-04T16:11:48.586Z,5.00
2019-03-04T16:14:20.783Z,1.70
2019-03-04T16:16:52.339Z,3.67
2019-03-04T16:19:23.956Z,2.67
2019-03-04T16:21:53.871Z,3.30
2019-03-04T16:24:24.743Z,3.50
2019-03-04T16:26:55.627Z,3.77
2019-03-04T16:29:25.397Z,0.90
2019-03-04T16:31:57.892Z,1.83
2019-03-04T16:34:30.580Z,2.87
2019-03-04T16:37:04.635Z,1.97
2019-03-04T16:39:35.482Z,1.53
2019-03-04T16:42:08.585Z,1.47
2019-03-04T16:44:39.957Z,1.13
2019-03-04T16:47:09.528Z,1.50
2019-03-04T16:49:39.401Z,3.07
2019-03-04T16:52:09.237Z,1.20
2019-03-04T16:54:40.170Z,1.27
2019-03-04T16:57:12.303Z,2.93
2019-03-04T16:59:43.355Z,1.60
2019-03-04T17:02:13.397Z,2.40
2019-03-04T17:04:44.356Z,2.27
2019-03-04T17:07:13.654Z,1.00
2019-03-04T17:09:43.421Z,1.20
2019-03-04T17:12:13.228Z,2.25
2019-03-04T17:14:45.676Z,2.73
2019-03-04T17:17:15.674Z,2.57
2019-03-04T17:19:45.604Z,2.20
2019-03-04T17:22:15.647Z,1.43
2019-03-04T17:24:45.739Z,2.33
2019-03-04T17:27:18.044Z,1.93
2019-03-04T17:29:49.210Z,2.07
2019-03-04T17:32:21.655Z,2.90
2019-03-04T17:34:53.180Z,2.30
2019-03-04T17:37:22.990Z,5.30
2019-03-04T17:39:56.858Z,3.00
2019-03-04T17:42:27.826Z,4.70
2019-03-04T17:44:57.639Z,3.40
2019-03-04T17:47:29.003Z,3.77
2019-03-04T17:50:00.294Z,5.90
2019-03-04T17:52:30.118Z,29.43
2019-03-04T17:55:01.074Z,5.30
2019-03-04T17:57:32.339Z,7.10
2019-03-04T18:00:03.512Z,9.23
2019-03-04T18:02:34.256Z,6.00
2019-03-04T18:05:05.343Z,17.23
2019-03-04T18:07:36.214Z,17.43
2019-03-04T18:10:21.023Z,11.70
2019-03-04T18:12:50.270Z,6.33
2019-03-04T18:15:31.773Z,7.13
2019-03-04T18:18:04.194Z,5.57
2019-03-04T18:20:34.810Z,5.13
2019-03-04T18:23:05.877Z,10.83
2019-03-04T18:25:41.698Z,6.77
2019-03-04T18:28:18.832Z,11.07
2019-03-04T18:30:59.517Z,8.73
2019-03-04T18:33:35.082Z,4.77
2019-03-04T18:36:17.264Z,5.40
2019-03-04T18:39:24.157Z,5.40
2019-03-04T18:42:05.767Z,4.57
2019-03-04T18:44:50.079Z,2.67
2019-03-04T18:47:36.031Z,12.93
2019-03-04T18:50:09.282Z,7.20
2019-03-04T18:52:39.106Z,31.17
2019-03-04T18:55:11.317Z,6.63
2019-03-04T18:57:40.506Z,18.50
2019-03-04T19:00:13.211Z,4.97
2019-03-04T19:02:43.038Z,7.90
2019-03-04T19:05:13.303Z,2.90
2019-03-04T19:07:44.332Z,2.70
2019-03-04T19:10:14.738Z,2.27
2019-03-04T19:12:45.715Z,2.33
2019-03-04T19:15:17.238Z,1.80
2019-03-04T19:17:47.059Z,1.80
2019-03-04T19:20:19.398Z,1.47
2019-03-04T19:22:49.213Z,1.53
2019-03-04T19:25:20.676Z,1.00
2019-03-04T19:27:51.964Z,1.30
2019-03-04T19:30:25.203Z,1.33
2019-03-04T19:32:55.001Z,1.00
2019-03-04T19:35:26.068Z,1.40
2019-03-04T19:37:56.963Z,1.40
2019-03-04T19:40:28.331Z,1.80
2019-03-04T19:42:58.281Z,1.50
2019-03-04T19:45:29.152Z,1.47
2019-03-04T19:48:00.639Z,1.50
2019-03-04T19:50:31.502Z,1.47
2019-03-04T19:53:03.798Z,1.67
2019-03-04T19:55:33.182Z,5.27
2019-03-04T19:58:02.520Z,3.07
2019-03-04T20:00:35.067Z,2.00
2019-03-04T20:03:06.041Z,1.60
2019-03-04T20:05:38.221Z,1.20
2019-03-04T20:08:08.228Z,1.73
2019-03-04T20:10:40.794Z,1.40
2019-03-04T20:13:12.309Z,1.70
2019-03-04T20:15:43.394Z,1.10
2019-03-04T20:18:14.372Z,1.97
2019-03-04T20:20:44.308Z,1.60
2019-03-04T20:23:14.045Z,1.40
2019-03-04T20:25:44.870Z,1.97
2019-03-04T20:28:15.900Z,1.50
2019-03-04T20:30:45.933Z,1.70
2019-03-04T20:33:16.843Z,2.17
2019-03-04T20:35:47.744Z,2.00
2019-03-04T20:38:24.700Z,1.87
2019-03-04T20:40:57.567Z,1.13
2019-03-04T20:43:29.683Z,1.70
2019-03-04T20:46:00.637Z,1.90
2019-03-04T20:48:30.377Z,2.30
2019-03-04T20:51:00.458Z,2.07
2019-03-04T20:53:30.313Z,1.77
2019-03-04T20:56:00.703Z,1.90
2019-03-04T20:58:31.869Z,1.90
2019-03-04T21:01:01.781Z,1.37
2019-03-04T21:03:35.150Z,2.53
2019-03-04T21:06:05.729Z,2.47
2019-03-04T21:08:35.865Z,1.63
2019-03-04T21:11:07.919Z,1.57
2019-03-04T21:13:38.519Z,2.30
2019-03-04T21:16:10.391Z,2.00
2019-03-04T21:18:42.877Z,1.53
2019-03-04T21:21:13.766Z,2.20
2019-03-04T21:23:44.899Z,1.50
2019-03-04T21:26:18.904Z,1.70
2019-03-04T21:29:03.365Z,1.50
2019-03-04T21:31:47.805Z,1.53
2019-03-04T21:34:44.280Z,1.72
2019-03-04T21:37:26.656Z,1.50
2019-03-04T21:39:59.554Z,1.87
2019-03-04T21:42:37.931Z,1.73
2019-03-04T21:45:34.639Z,1.70
2019-03-04T21:48:16.034Z,2.20
2019-03-04T21:51:14.315Z,1.70
2019-03-04T21:53:52.930Z,2.20
2019-03-04T21:56:32.499Z,1.80
2019-03-04T21:59:03.571Z,1.60
2019-03-04T22:01:47.986Z,1.40
2019-03-04T22:04:18.983Z,1.63
2019-03-04T22:06:48.200Z,1.33
2019-03-04T22:09:19.122Z,1.00
2019-03-04T22:11:49.054Z,1.50
2019-03-04T22:14:20.394Z,1.37
2019-03-04T22:16:50.436Z,1.87
2019-03-04T22:19:22.797Z,2.40
2019-03-04T22:21:53.710Z,1.90
2019-03-04T22:24:24.586Z,1.70
2019-03-04T22:26:58.036Z,1.87
2019-03-04T22:29:30.430Z,2.03
2019-03-04T22:31:59.650Z,1.70
2019-03-04T22:34:33.831Z,2.17
2019-03-04T22:37:06.067Z,1.20
2019-03-04T22:39:36.124Z,2.20
2019-03-04T22:42:07.510Z,2.08
2019-03-04T22:44:39.681Z,1.70
2019-03-04T22:47:11.996Z,1.97
2019-03-04T22:49:43.123Z,1.70
2019-03-04T22:52:12.973Z,1.50
2019-03-04T22:54:42.815Z,1.65
2019-03-04T22:57:12.666Z,1.50
2019-03-04T22:59:43.660Z,1.90
2019-03-04T23:02:17.106Z,1.70
2019-03-04T23:04:46.932Z,1.70
2019-03-04T23:07:16.862Z,1.53
2019-03-04T23:10:07.605Z,2.03
2019-03-04T23:12:58.321Z,1.80
2019-03-04T23:15:28.256Z,1.60
2019-03-04T23:17:59.179Z,1.20
2019-03-04T23:20:30.028Z,1.73
2019-03-04T23:22:59.992Z,1.60
2019-03-04T23:25:30.937Z,1.87
2019-03-04T23:28:01.838Z,2.03
2019-03-04T23:30:32.755Z,1.70
2019-03-04T23:33:03.559Z,2.03
2019-03-04T23:35:34.571Z,1.80
2019-03-04T23:38:05.514Z,2.00
2019-03-04T23:40:34.814Z,1.70
2019-03-04T23:43:05.802Z,2.30
2019-03-04T23:45:35.835Z,2.20
2019-03-04T23:48:07.361Z,1.97
2019-03-04T23:50:38.495Z,2.37
2019-03-04T23:53:08.512Z,2.80
2019-03-04T23:55:39.507Z,2.97
2019-03-04T23:58:12.339Z,2.60
